createdAt,value
2018-08-08T00:00:55.172Z,6.00
2018-08-08T00:03:23.340Z,5.70
2018-08-08T00:05:51.489Z,7.20
2018-08-08T00:08:19.647Z,6.70
2018-08-08T00:10:47.817Z,6.80
2018-08-08T00:13:15.986Z,6.27
2018-08-08T00:15:44.162Z,6.63
2018-08-08T00:18:12.319Z,6.40
2018-08-08T00:20:40.539Z,6.90
2018-08-08T00:23:08.689Z,7.17
2018-08-08T00:25:36.849Z,6.53
2018-08-08T00:28:05.110Z,7.43
2018-08-08T00:30:33.265Z,7.47
2018-08-08T00:33:01.442Z,7.50
2018-08-08T00:35:29.606Z,7.17
2018-08-08T00:37:57.762Z,7.40
2018-08-08T00:40:25.958Z,7.57
2018-08-08T00:42:54.122Z,7.67
2018-08-08T00:45:22.299Z,7.40
2018-08-08T00:47:50.595Z,6.87
2018-08-08T00:50:18.742Z,6.87
2018-08-08T00:52:47.862Z,6.00
2018-08-08T00:55:16.018Z,6.10
2018-08-08T00:57:44.186Z,6.63
2018-08-08T01:00:14.413Z,8.00
2018-08-08T01:02:42.793Z,6.57
2018-08-08T01:05:12.315Z,8.97
2018-08-08T01:07:41.005Z,7.90
2018-08-08T01:10:09.589Z,7.17
2018-08-08T01:12:37.746Z,8.00
2018-08-08T01:15:07.545Z,7.70
2018-08-08T01:17:35.805Z,7.90
2018-08-08T01:20:05.144Z,8.67
2018-08-08T01:22:33.378Z,8.27
2018-08-08T01:25:01.542Z,9.43
2018-08-08T01:27:29.710Z,8.17
2018-08-08T01:29:57.877Z,9.27
2018-08-08T01:32:26.033Z,7.60
2018-08-08T01:34:54.223Z,8.43
2018-08-08T01:37:22.373Z,7.90
2018-08-08T01:39:50.530Z,6.73
2018-08-08T01:42:18.693Z,7.03
2018-08-08T01:44:46.917Z,7.53
2018-08-08T01:47:15.086Z,8.00
2018-08-08T01:49:43.253Z,7.40
2018-08-08T01:52:11.409Z,7.83
2018-08-08T01:54:39.578Z,6.87
2018-08-08T01:57:07.761Z,7.10
2018-08-08T01:59:36.337Z,6.47
2018-08-08T02:02:04.518Z,7.37
2018-08-08T02:04:32.714Z,6.80
2018-08-08T02:07:00.945Z,7.30
2018-08-08T02:09:29.308Z,6.93
2018-08-08T02:11:59.231Z,6.80
2018-08-08T02:14:27.592Z,6.77
2018-08-08T02:16:55.725Z,7.10
2018-08-08T02:19:23.891Z,6.97
2018-08-08T02:21:52.101Z,7.97
2018-08-08T02:24:20.367Z,6.90
2018-08-08T02:26:48.521Z,6.20
2018-08-08T02:29:16.686Z,6.80
2018-08-08T02:31:44.871Z,6.93
2018-08-08T02:34:13.058Z,6.83
2018-08-08T02:36:41.206Z,6.67
2018-08-08T02:39:11.966Z,6.67
2018-08-08T02:41:40.130Z,6.90
2018-08-08T02:44:08.295Z,6.50
2018-08-08T02:46:36.814Z,7.17
2018-08-08T02:49:05.293Z,6.70
2018-08-08T02:51:33.451Z,6.43
2018-08-08T02:54:02.054Z,7.13
2018-08-08T02:56:30.343Z,6.37
2018-08-08T02:58:58.821Z,6.10
2018-08-08T03:01:26.982Z,6.80
2018-08-08T03:03:55.159Z,6.50
2018-08-08T03:06:23.771Z,6.57
2018-08-08T03:08:52.088Z,6.27
2018-08-08T03:11:20.255Z,7.00
2018-08-08T03:13:48.605Z,6.37
2018-08-08T03:16:16.767Z,5.70
2018-08-08T03:18:44.938Z,6.77
2018-08-08T03:21:13.117Z,6.97
2018-08-08T03:23:41.277Z,6.60
2018-08-08T03:26:09.464Z,6.73
2018-08-08T03:28:37.603Z,6.60
2018-08-08T03:31:05.942Z,6.57
2018-08-08T03:33:34.090Z,6.60
2018-08-08T03:36:02.254Z,6.47
2018-08-08T03:38:30.441Z,7.00
2018-08-08T03:40:58.602Z,7.23
2018-08-08T03:43:26.766Z,6.40
2018-08-08T03:45:54.964Z,6.93
2018-08-08T03:48:23.158Z,6.70
2018-08-08T03:50:51.333Z,6.73
2018-08-08T03:53:19.557Z,6.53
2018-08-08T03:55:47.682Z,6.10
2018-08-08T03:58:15.838Z,7.00
2018-08-08T04:00:44.002Z,6.63
2018-08-08T04:03:12.159Z,7.03
2018-08-08T04:05:40.323Z,6.67
2018-08-08T04:08:08.494Z,6.83
2018-08-08T04:10:36.657Z,7.80
2018-08-08T04:13:04.821Z,7.80
2018-08-08T04:15:32.982Z,7.53
2018-08-08T04:18:01.144Z,8.27
2018-08-08T04:20:29.313Z,7.53
2018-08-08T04:22:57.466Z,9.93
2018-08-08T04:25:25.670Z,6.60
2018-08-08T04:27:53.818Z,8.93
2018-08-08T04:30:22.001Z,7.63
2018-08-08T04:32:50.847Z,9.90
2018-08-08T04:35:18.997Z,9.97
2018-08-08T04:37:47.572Z,10.77
2018-08-08T04:40:17.490Z,10.60
2018-08-08T04:42:46.703Z,10.10
2018-08-08T04:45:15.718Z,10.70
2018-08-08T04:47:44.381Z,12.30
2018-08-08T04:50:12.586Z,10.43
2018-08-08T04:52:41.050Z,11.90
2018-08-08T04:55:10.910Z,10.10
2018-08-08T04:57:39.462Z,12.30
2018-08-08T05:00:09.277Z,10.03
2018-08-08T05:02:37.753Z,13.40
2018-08-08T05:05:06.311Z,11.47
2018-08-08T05:07:34.825Z,13.17
2018-08-08T05:10:02.986Z,12.33
2018-08-08T05:12:31.145Z,11.07
2018-08-08T05:14:59.325Z,9.93
2018-08-08T05:17:27.485Z,13.30
2018-08-08T05:19:55.691Z,12.60
2018-08-08T05:22:23.842Z,10.37
2018-08-08T05:24:52.007Z,9.77
2018-08-08T05:27:20.173Z,12.17
2018-08-08T05:29:48.325Z,14.33
2018-08-08T05:32:16.601Z,14.90
2018-08-08T05:34:44.785Z,15.50
2018-08-08T05:37:13.154Z,9.53
2018-08-08T05:39:41.305Z,12.00
2018-08-08T05:42:09.485Z,9.87
2018-08-08T05:44:37.682Z,12.30
2018-08-08T05:47:06.137Z,11.40
2018-08-08T05:49:34.322Z,10.20
2018-08-08T05:52:02.514Z,12.73
2018-08-08T05:54:30.982Z,11.40
2018-08-08T05:56:59.174Z,12.10
2018-08-08T05:59:28.705Z,10.60
2018-08-08T06:01:56.875Z,10.40
2018-08-08T06:04:25.024Z,10.10
2018-08-08T06:06:53.197Z,10.70
2018-08-08T06:09:21.372Z,8.90
2018-08-08T06:11:49.613Z,9.60
2018-08-08T06:14:17.797Z,10.33
2018-08-08T06:16:45.955Z,9.77
2018-08-08T06:19:14.117Z,9.37
2018-08-08T06:21:43.169Z,9.90
2018-08-08T06:24:11.338Z,9.30
2018-08-08T06:26:39.503Z,8.33
2018-08-08T06:29:07.677Z,8.53
2018-08-08T06:31:35.842Z,9.13
2018-08-08T06:34:04.894Z,7.70
2018-08-08T06:36:33.065Z,7.47
2018-08-08T06:39:01.219Z,8.73
2018-08-08T06:41:29.398Z,6.17
2018-08-08T06:43:57.595Z,7.40
2018-08-08T06:46:25.750Z,6.83
2018-08-08T06:48:53.905Z,6.20
2018-08-08T06:51:22.078Z,6.80
2018-08-08T06:53:50.245Z,6.30
2018-08-08T06:56:18.805Z,7.50
2018-08-08T06:58:46.969Z,6.60
2018-08-08T07:01:15.445Z,6.70
2018-08-08T07:03:43.606Z,6.50
2018-08-08T07:06:11.790Z,6.77
2018-08-08T07:08:39.966Z,6.63
2018-08-08T07:11:08.253Z,6.93
2018-08-08T07:13:36.426Z,6.63
2018-08-08T07:16:04.586Z,7.80
2018-08-08T07:18:32.781Z,7.40
2018-08-08T07:21:00.956Z,7.30
2018-08-08T07:23:29.118Z,7.13
2018-08-08T07:25:57.305Z,7.80
2018-08-08T07:28:25.468Z,8.60
2018-08-08T07:30:53.674Z,7.87
2018-08-08T07:33:21.841Z,7.50
2018-08-08T07:35:50.139Z,7.43
2018-08-08T07:38:18.369Z,7.50
2018-08-08T07:40:46.525Z,8.43
2018-08-08T07:43:14.699Z,6.97
2018-08-08T07:45:42.940Z,7.73
2018-08-08T07:48:11.086Z,8.10
2018-08-08T07:50:39.253Z,8.30
2018-08-08T07:53:07.429Z,9.20
2018-08-08T07:55:35.579Z,6.80
2018-08-08T07:58:03.837Z,6.70
2018-08-08T08:00:31.930Z,9.73
2018-08-08T08:03:00.357Z,10.80
2018-08-08T08:05:28.742Z,7.93
2018-08-08T08:07:57.538Z,10.30
2018-08-08T08:10:25.698Z,11.10
2018-08-08T08:12:53.913Z,8.60
2018-08-08T08:15:22.038Z,9.67
2018-08-08T08:17:50.201Z,9.70
2018-08-08T08:20:19.334Z,11.40
2018-08-08T08:22:48.562Z,8.47
2018-08-08T08:25:16.925Z,8.80
2018-08-08T08:27:45.138Z,13.83
2018-08-08T08:30:14.618Z,10.10
2018-08-08T08:32:43.298Z,10.97
2018-08-08T08:35:11.482Z,11.23
2018-08-08T08:37:40.171Z,13.83
2018-08-08T08:40:09.174Z,11.47
2018-08-08T08:42:37.330Z,11.93
2018-08-08T08:45:05.735Z,14.30
2018-08-08T08:47:33.909Z,14.10
2018-08-08T08:50:02.161Z,14.00
2018-08-08T08:52:30.434Z,12.90
2018-08-08T08:54:58.761Z,13.40
2018-08-08T08:57:27.594Z,11.90
2018-08-08T08:59:55.860Z,11.53
2018-08-08T09:02:24.147Z,12.73
2018-08-08T09:04:52.350Z,11.03
2018-08-08T09:07:21.429Z,11.40
2018-08-08T09:09:50.405Z,12.73
2018-08-08T09:12:18.890Z,11.23
2018-08-08T09:14:47.082Z,12.43
2018-08-08T09:17:15.243Z,9.63
2018-08-08T09:19:43.401Z,12.37
2018-08-08T09:22:11.624Z,13.00
2018-08-08T09:24:39.794Z,14.70
2018-08-08T09:27:07.962Z,13.00
2018-08-08T09:29:36.174Z,10.63
2018-08-08T09:32:04.439Z,14.50
2018-08-08T09:34:32.605Z,12.40
2018-08-08T09:37:00.787Z,13.50
2018-08-08T09:39:28.958Z,12.40
2018-08-08T09:41:57.118Z,11.97
2018-08-08T09:44:25.296Z,15.10
2018-08-08T09:46:53.453Z,14.13
2018-08-08T09:49:21.629Z,13.93
2018-08-08T09:51:49.805Z,14.47
2018-08-08T09:54:18.010Z,13.70
2018-08-08T09:56:46.210Z,12.80
2018-08-08T09:59:14.370Z,14.20
2018-08-08T10:01:48.019Z,11.60
2018-08-08T10:04:21.625Z,13.77
2018-08-08T10:06:49.794Z,15.23
2018-08-08T10:09:17.968Z,12.87
2018-08-08T10:11:46.147Z,16.00
2018-08-08T10:14:14.344Z,15.70
2018-08-08T10:16:42.521Z,14.97
2018-08-08T10:19:10.730Z,14.93
2018-08-08T10:21:38.877Z,14.93
2018-08-08T10:24:07.046Z,14.53
2018-08-08T10:26:35.558Z,13.70
2018-08-08T10:29:03.739Z,13.60
2018-08-08T10:31:31.929Z,12.77
2018-08-08T10:34:00.162Z,10.67
2018-08-08T10:36:28.653Z,10.97
2018-08-08T10:38:57.030Z,11.17
2018-08-08T10:41:25.218Z,10.80
2018-08-08T10:43:53.502Z,12.73
2018-08-08T10:46:21.687Z,11.50
2018-08-08T10:48:49.844Z,14.60
2018-08-08T10:51:18.114Z,12.17
2018-08-08T10:53:46.834Z,14.70
2018-08-08T10:56:15.083Z,11.23
2018-08-08T10:58:43.204Z,13.50
2018-08-08T11:01:11.462Z,16.03
2018-08-08T11:03:39.601Z,11.97
2018-08-08T11:06:07.790Z,12.47
2018-08-08T11:08:35.958Z,12.87
2018-08-08T11:11:04.317Z,16.40
2018-08-08T11:13:32.479Z,13.00
2018-08-08T11:16:00.721Z,13.77
2018-08-08T11:18:28.899Z,12.30
2018-08-08T11:20:57.073Z,12.50
2018-08-08T11:23:25.230Z,12.90
2018-08-08T11:25:53.406Z,12.07
2018-08-08T11:28:21.856Z,11.47
2018-08-08T11:30:50.033Z,10.67
2018-08-08T11:33:18.211Z,10.40
2018-08-08T11:35:46.378Z,10.07
2018-08-08T11:38:14.581Z,10.53
2018-08-08T11:40:42.750Z,9.70
2018-08-08T11:43:11.004Z,8.80
2018-08-08T11:45:39.166Z,9.60
2018-08-08T11:48:07.355Z,9.70
2018-08-08T11:50:35.538Z,8.20
2018-08-08T11:53:04.026Z,8.67
2018-08-08T11:55:32.201Z,9.20
2018-08-08T11:58:00.358Z,7.70
2018-08-08T12:00:28.525Z,8.93
2018-08-08T12:02:56.706Z,8.13
2018-08-08T12:05:24.873Z,9.30
2018-08-08T12:07:54.926Z,8.93
2018-08-08T12:10:23.265Z,9.30
2018-08-08T12:12:52.097Z,8.67
2018-08-08T12:15:20.589Z,8.17
2018-08-08T12:17:49.170Z,8.90
2018-08-08T12:20:17.558Z,7.67
2018-08-08T12:22:45.752Z,7.53
2018-08-08T12:25:14.032Z,7.80
2018-08-08T12:27:42.182Z,8.07
2018-08-08T12:30:10.985Z,7.30
2018-08-08T12:32:39.782Z,8.13
2018-08-08T12:35:08.177Z,7.03
2018-08-08T12:37:36.350Z,8.00
2018-08-08T12:40:05.402Z,7.83
2018-08-08T12:42:33.577Z,7.67
2018-08-08T12:45:02.121Z,7.13
2018-08-08T12:47:30.285Z,7.23
2018-08-08T12:49:58.447Z,6.40
2018-08-08T12:52:26.737Z,7.47
2018-08-08T12:54:54.911Z,6.13
2018-08-08T12:57:23.231Z,8.40
2018-08-08T12:59:51.338Z,7.10
2018-08-08T13:02:19.497Z,6.80
2018-08-08T13:04:47.661Z,6.23
2018-08-08T13:07:15.909Z,7.73
2018-08-08T13:09:44.058Z,6.90
2018-08-08T13:12:12.226Z,6.53
2018-08-08T13:14:40.682Z,6.40
2018-08-08T13:17:09.113Z,6.50
2018-08-08T13:19:37.314Z,5.67
2018-08-08T13:22:05.478Z,6.57
2018-08-08T13:24:33.638Z,5.87
2018-08-08T13:27:01.793Z,6.47
2018-08-08T13:29:29.954Z,5.80
2018-08-08T13:31:58.110Z,5.43
2018-08-08T13:34:26.266Z,5.30
2018-08-08T13:36:54.487Z,5.43
2018-08-08T13:39:22.732Z,6.20
2018-08-08T13:41:50.805Z,6.53
2018-08-08T13:44:19.061Z,6.67
2018-08-08T13:46:47.205Z,6.10
2018-08-08T13:49:15.406Z,5.27
2018-08-08T13:51:43.640Z,5.80
2018-08-08T13:54:11.782Z,5.50
2018-08-08T13:56:40.014Z,7.97
2018-08-08T13:59:08.211Z,5.70
2018-08-08T14:01:36.339Z,5.83
2018-08-08T14:04:04.489Z,4.90
2018-08-08T14:06:32.645Z,8.17
2018-08-08T14:09:00.803Z,6.60
2018-08-08T14:11:28.969Z,6.67
2018-08-08T14:13:57.189Z,6.50
2018-08-08T14:16:25.402Z,6.80
2018-08-08T14:18:53.560Z,5.80
2018-08-08T14:21:21.732Z,6.17
2018-08-08T14:23:49.877Z,6.30
2018-08-08T14:26:18.077Z,6.83
2018-08-08T14:28:46.270Z,6.50
2018-08-08T14:31:14.462Z,8.23
2018-08-08T14:33:42.625Z,8.47
2018-08-08T14:36:10.794Z,7.73
2018-08-08T14:38:38.982Z,7.93
2018-08-08T14:41:07.517Z,9.60
2018-08-08T14:43:35.653Z,7.73
2018-08-08T14:46:03.810Z,7.63
2018-08-08T14:48:31.982Z,8.30
2018-08-08T14:51:00.135Z,6.93
2018-08-08T14:53:28.314Z,6.73
2018-08-08T14:55:56.474Z,7.50
2018-08-08T14:58:24.708Z,6.70
2018-08-08T15:00:52.862Z,6.73
2018-08-08T15:03:21.022Z,6.47
2018-08-08T15:05:49.201Z,6.63
2018-08-08T15:08:17.481Z,6.80
2018-08-08T15:10:45.637Z,6.40
2018-08-08T15:13:13.811Z,6.80
2018-08-08T15:15:41.981Z,6.43
2018-08-08T15:18:10.153Z,6.40
2018-08-08T15:20:38.335Z,6.30
2018-08-08T15:23:06.505Z,7.13
2018-08-08T15:25:34.668Z,5.80
2018-08-08T15:28:02.871Z,6.10
2018-08-08T15:30:31.038Z,6.70
2018-08-08T15:32:59.202Z,6.30
2018-08-08T15:35:27.358Z,6.07
2018-08-08T15:37:55.612Z,5.83
2018-08-08T15:40:23.734Z,5.90
2018-08-08T15:42:51.909Z,6.03
2018-08-08T15:45:20.079Z,5.70
2018-08-08T15:47:48.301Z,5.70
2018-08-08T15:50:16.498Z,5.83
2018-08-08T15:52:44.675Z,5.80
2018-08-08T15:55:13.129Z,5.30
2018-08-08T15:57:41.299Z,5.90
2018-08-08T16:00:11.334Z,5.40
2018-08-08T16:02:39.502Z,5.53
2018-08-08T16:05:07.878Z,5.50
2018-08-08T16:07:36.686Z,5.93
2018-08-08T16:10:06.519Z,5.80
2018-08-08T16:12:34.695Z,5.43
2018-08-08T16:15:02.881Z,5.10
2018-08-08T16:17:31.130Z,5.03
2018-08-08T16:19:59.290Z,5.10
2018-08-08T16:22:27.511Z,4.83
2018-08-08T16:24:55.688Z,5.17
2018-08-08T16:27:23.850Z,5.27
2018-08-08T16:29:52.042Z,5.30
2018-08-08T16:32:20.231Z,5.30
2018-08-08T16:34:48.398Z,4.90
2018-08-08T16:37:16.566Z,4.97
2018-08-08T16:39:44.721Z,5.30
2018-08-08T16:42:12.902Z,5.50
2018-08-08T16:44:41.073Z,4.90
2018-08-08T16:47:09.239Z,4.80
2018-08-08T16:49:37.418Z,4.63
2018-08-08T16:52:05.759Z,5.50
2018-08-08T16:54:34.038Z,4.50
2018-08-08T16:57:02.213Z,4.50
2018-08-08T16:59:30.425Z,5.30
2018-08-08T17:01:58.590Z,4.90
2018-08-08T17:04:26.750Z,4.70
2018-08-08T17:06:54.902Z,4.73
2018-08-08T17:09:23.081Z,4.60
2018-08-08T17:11:51.241Z,4.40
2018-08-08T17:14:19.450Z,4.97
2018-08-08T17:16:47.554Z,4.40
2018-08-08T17:19:15.891Z,4.13
2018-08-08T17:21:44.074Z,4.70
2018-08-08T17:24:12.229Z,5.20
2018-08-08T17:26:40.581Z,5.00
2018-08-08T17:29:08.771Z,4.80
2018-08-08T17:31:36.931Z,5.20
2018-08-08T17:34:05.105Z,4.80
2018-08-08T17:36:33.251Z,4.23
2018-08-08T17:39:01.418Z,4.40
2018-08-08T17:41:29.690Z,4.50
2018-08-08T17:43:58.086Z,5.13
2018-08-08T17:46:26.009Z,4.53
2018-08-08T17:48:54.174Z,3.83
2018-08-08T17:51:22.339Z,3.80
2018-08-08T17:53:50.510Z,4.20
2018-08-08T17:56:18.679Z,3.80
2018-08-08T17:58:46.846Z,4.70
2018-08-08T18:01:15.002Z,4.40
2018-08-08T18:03:43.170Z,4.13
2018-08-08T18:06:12.719Z,3.97
2018-08-08T18:08:41.113Z,4.10
2018-08-08T18:11:09.288Z,4.57
2018-08-08T18:13:37.445Z,3.70
2018-08-08T18:16:05.607Z,4.10
2018-08-08T18:18:33.757Z,4.30
2018-08-08T18:21:01.972Z,3.90
2018-08-08T18:23:30.113Z,3.80
2018-08-08T18:25:58.291Z,3.87
2018-08-08T18:28:26.442Z,3.97
2018-08-08T18:30:54.598Z,3.60
2018-08-08T18:33:22.749Z,3.40
2018-08-08T18:35:50.914Z,3.43
2018-08-08T18:38:19.069Z,3.03
2018-08-08T18:40:47.261Z,3.17
2018-08-08T18:43:15.424Z,3.20
2018-08-08T18:45:43.597Z,3.40
2018-08-08T18:48:11.830Z,3.20
2018-08-08T18:50:40.074Z,3.07
2018-08-08T18:53:08.226Z,2.97
2018-08-08T18:55:36.406Z,3.77
2018-08-08T18:58:04.634Z,3.33
2018-08-08T19:00:32.823Z,3.60
2018-08-08T19:03:01.030Z,3.27
2018-08-08T19:05:29.207Z,3.13
2018-08-08T19:07:57.355Z,3.03
2018-08-08T19:10:25.521Z,2.97
2018-08-08T19:12:53.686Z,2.90
2018-08-08T19:15:21.884Z,3.07
2018-08-08T19:17:50.026Z,2.73
2018-08-08T19:20:18.185Z,3.00
2018-08-08T19:22:46.349Z,3.50
2018-08-08T19:25:14.517Z,2.83
2018-08-08T19:27:42.661Z,3.20
2018-08-08T19:30:10.946Z,2.80
2018-08-08T19:32:39.110Z,2.53
2018-08-08T19:35:07.290Z,2.90
2018-08-08T19:37:35.478Z,2.50
2018-08-08T19:40:03.658Z,2.60
2018-08-08T19:42:31.877Z,2.40
2018-08-08T19:45:00.070Z,2.40
2018-08-08T19:47:28.231Z,2.40
2018-08-08T19:49:56.378Z,2.40
2018-08-08T19:52:24.586Z,2.30
2018-08-08T19:54:52.774Z,2.17
2018-08-08T19:57:20.944Z,2.23
2018-08-08T19:59:49.106Z,2.17
2018-08-08T20:02:17.350Z,2.77
2018-08-08T20:04:45.554Z,2.30
2018-08-08T20:07:13.743Z,2.60
2018-08-08T20:09:41.886Z,2.27
2018-08-08T20:12:10.058Z,2.27
2018-08-08T20:14:38.261Z,2.10
2018-08-08T20:17:06.455Z,2.10
2018-08-08T20:19:34.649Z,1.70
2018-08-08T20:22:02.886Z,2.20
2018-08-08T20:24:31.169Z,2.67
2018-08-08T20:26:59.395Z,1.83
2018-08-08T20:29:27.542Z,2.10
2018-08-08T20:31:57.187Z,2.00
2018-08-08T20:34:25.448Z,1.63
2018-08-08T20:36:53.622Z,2.10
2018-08-08T20:39:21.794Z,2.00
2018-08-08T20:41:51.676Z,1.97
2018-08-08T20:44:20.631Z,1.97
2018-08-08T20:46:50.747Z,2.40
2018-08-08T20:49:20.958Z,1.63
2018-08-08T20:51:51.801Z,1.90
2018-08-08T20:54:21.832Z,2.10
2018-08-08T20:56:55.314Z,2.10
2018-08-08T20:59:28.273Z,1.97
2018-08-08T21:01:57.226Z,1.90
2018-08-08T21:04:26.890Z,1.83
2018-08-08T21:06:56.552Z,1.90
2018-08-08T21:09:26.114Z,2.23
2018-08-08T21:11:56.054Z,2.10
2018-08-08T21:14:25.525Z,2.10
2018-08-08T21:16:55.825Z,1.90
2018-08-08T21:19:27.846Z,2.47
2018-08-08T21:22:03.067Z,2.10
2018-08-08T21:24:33.115Z,2.00
2018-08-08T21:27:04.460Z,1.97
2018-08-08T21:29:35.407Z,2.20
2018-08-08T21:32:05.962Z,2.10
2018-08-08T21:34:36.281Z,2.20
2018-08-08T21:37:07.198Z,1.90
2018-08-08T21:39:36.611Z,2.40
2018-08-08T21:42:06.896Z,2.10
2018-08-08T21:44:38.296Z,2.10
2018-08-08T21:47:08.872Z,2.27
2018-08-08T21:49:38.915Z,2.20
2018-08-08T21:52:09.137Z,2.13
2018-08-08T21:54:50.526Z,2.70
2018-08-08T21:57:30.808Z,2.33
2018-08-08T22:00:11.435Z,2.30
2018-08-08T22:02:53.010Z,2.30
2018-08-08T22:05:41.921Z,2.60
2018-08-08T22:08:23.067Z,2.87
2018-08-08T22:12:13.732Z,2.20
2018-08-08T22:14:54.091Z,2.93
2018-08-08T22:17:34.986Z,3.20
2018-08-08T22:20:03.191Z,2.90
2018-08-08T22:22:31.358Z,3.00
2018-08-08T22:24:59.518Z,3.10
2018-08-08T22:27:27.673Z,3.60
2018-08-08T22:29:55.833Z,4.07
2018-08-08T22:32:24.006Z,2.90
2018-08-08T22:34:52.161Z,3.60
2018-08-08T22:37:20.322Z,2.87
2018-08-08T22:39:48.487Z,3.07
2018-08-08T22:42:16.642Z,2.87
2018-08-08T22:44:44.794Z,3.40
2018-08-08T22:47:12.961Z,2.90
2018-08-08T22:49:41.118Z,2.90
2018-08-08T22:52:09.294Z,2.57
2018-08-08T22:54:37.450Z,3.03
2018-08-08T22:57:05.613Z,2.87
2018-08-08T22:59:33.773Z,3.07
2018-08-08T23:02:02.029Z,3.07
2018-08-08T23:04:30.186Z,3.17
2018-08-08T23:06:58.342Z,3.00
2018-08-08T23:09:26.495Z,3.37
2018-08-08T23:11:54.726Z,3.17
2018-08-08T23:14:22.885Z,3.03
2018-08-08T23:16:51.037Z,3.30
2018-08-08T23:19:20.261Z,2.87
2018-08-08T23:21:48.413Z,2.97
2018-08-08T23:24:16.595Z,3.30
2018-08-08T23:26:44.766Z,2.80
2018-08-08T23:29:12.923Z,3.20
2018-08-08T23:31:41.086Z,3.40
2018-08-08T23:34:09.249Z,3.40
2018-08-08T23:36:37.405Z,3.27
2018-08-08T23:39:07.423Z,3.27
2018-08-08T23:41:35.574Z,3.43
2018-08-08T23:44:03.733Z,2.70
2018-08-08T23:46:31.898Z,3.13
2018-08-08T23:49:00.922Z,3.07
2018-08-08T23:51:29.116Z,3.77
2018-08-08T23:53:57.270Z,2.90
2018-08-08T23:56:25.425Z,3.33
2018-08-08T23:58:53.593Z,2.97
